sensor_id;sensor_type;location;lat;lon;timestamp;P1;durP1;ratioP1;P2;durP2;ratioP2
14040;SDS011;7095;51.388;6.196;2022-08-05T00:00:53;14.23;;;8.30;;
14040;SDS011;7095;51.388;6.196;2022-08-05T00:03:41;12.30;;;8.23;;
14040;SDS011;7095;51.388;6.196;2022-08-05T00:06:11;17.03;;;7.70;;
14040;SDS011;7095;51.388;6.196;2022-08-05T00:08:58;11.57;;;7.13;;
14040;SDS011;7095;51.388;6.196;2022-08-05T00:11:27;11.03;;;8.20;;
14040;SDS011;7095;51.388;6.196;2022-08-05T00:14:17;19.93;;;9.27;;
14040;SDS011;7095;51.388;6.196;2022-08-05T00:16:46;23.33;;;8.87;;
14040;SDS011;7095;51.388;6.196;2022-08-05T00:19:19;12.80;;;8.43;;
14040;SDS011;7095;51.388;6.196;2022-08-05T00:21:50;12.33;;;7.97;;
14040;SDS011;7095;51.388;6.196;2022-08-05T00:24:20;14.93;;;9.27;;
14040;SDS011;7095;51.388;6.196;2022-08-05T00:26:56;12.17;;;7.93;;
14040;SDS011;7095;51.388;6.196;2022-08-05T00:29:27;13.37;;;8.47;;
14040;SDS011;7095;51.388;6.196;2022-08-05T00:32:04;15.57;;;8.23;;
14040;SDS011;7095;51.388;6.196;2022-08-05T00:34:41;12.70;;;8.60;;
14040;SDS011;7095;51.388;6.196;2022-08-05T00:37:30;14.90;;;9.30;;
14040;SDS011;7095;51.388;6.196;2022-08-05T00:40:19;14.83;;;8.77;;
14040;SDS011;7095;51.388;6.196;2022-08-05T00:42:56;12.07;;;9.27;;
14040;SDS011;7095;51.388;6.196;2022-08-05T00:45:27;12.57;;;9.17;;
14040;SDS011;7095;51.388;6.196;2022-08-05T00:48:10;13.60;;;9.97;;
14040;SDS011;7095;51.388;6.196;2022-08-05T00:50:40;14.83;;;9.10;;
14040;SDS011;7095;51.388;6.196;2022-08-05T00:53:12;11.87;;;9.10;;
14040;SDS011;7095;51.388;6.196;2022-08-05T00:56:02;13.97;;;8.83;;
14040;SDS011;7095;51.388;6.196;2022-08-05T00:58:34;13.07;;;8.63;;
14040;SDS011;7095;51.388;6.196;2022-08-05T01:01:09;16.47;;;9.50;;
14040;SDS011;7095;51.388;6.196;2022-08-05T01:03:50;12.30;;;9.43;;
14040;SDS011;7095;51.388;6.196;2022-08-05T01:06:19;14.60;;;9.20;;
14040;SDS011;7095;51.388;6.196;2022-08-05T01:08:58;18.17;;;10.23;;
14040;SDS011;7095;51.388;6.196;2022-08-05T01:11:29;13.00;;;10.10;;
14040;SDS011;7095;51.388;6.196;2022-08-05T01:14:04;14.27;;;8.97;;
14040;SDS011;7095;51.388;6.196;2022-08-05T01:16:45;20.90;;;10.20;;
14040;SDS011;7095;51.388;6.196;2022-08-05T01:19:25;15.63;;;10.57;;
14040;SDS011;7095;51.388;6.196;2022-08-05T01:22:29;12.73;;;9.37;;
14040;SDS011;7095;51.388;6.196;2022-08-05T01:25:23;21.03;;;10.63;;
14040;SDS011;7095;51.388;6.196;2022-08-05T01:28:19;19.53;;;10.20;;
14040;SDS011;7095;51.388;6.196;2022-08-05T01:30:55;13.80;;;10.53;;
14040;SDS011;7095;51.388;6.196;2022-08-05T01:33:31;15.87;;;11.20;;
14040;SDS011;7095;51.388;6.196;2022-08-05T01:36:03;13.97;;;10.47;;
14040;SDS011;7095;51.388;6.196;2022-08-05T01:38:42;12.97;;;10.13;;
14040;SDS011;7095;51.388;6.196;2022-08-05T01:41:15;13.50;;;10.40;;
14040;SDS011;7095;51.388;6.196;2022-08-05T01:43:49;13.83;;;9.87;;
14040;SDS011;7095;51.388;6.196;2022-08-05T01:46:20;14.37;;;10.47;;
14040;SDS011;7095;51.388;6.196;2022-08-05T01:49:11;15.73;;;12.00;;
14040;SDS011;7095;51.388;6.196;2022-08-05T01:51:54;14.20;;;11.33;;
14040;SDS011;7095;51.388;6.196;2022-08-05T01:54:28;14.37;;;10.03;;
14040;SDS011;7095;51.388;6.196;2022-08-05T01:57:13;16.27;;;11.10;;
14040;SDS011;7095;51.388;6.196;2022-08-05T02:00:09;19.97;;;10.50;;
14040;SDS011;7095;51.388;6.196;2022-08-05T02:02:39;16.20;;;11.33;;
14040;SDS011;7095;51.388;6.196;2022-08-05T02:05:21;15.57;;;11.03;;
14040;SDS011;7095;51.388;6.196;2022-08-05T02:07:54;21.57;;;11.60;;
14040;SDS011;7095;51.388;6.196;2022-08-05T02:10:30;23.93;;;11.80;;
14040;SDS011;7095;51.388;6.196;2022-08-05T02:13:07;16.73;;;10.53;;
14040;SDS011;7095;51.388;6.196;2022-08-05T02:15:44;18.73;;;11.37;;
14040;SDS011;7095;51.388;6.196;2022-08-05T02:18:22;15.93;;;11.60;;
14040;SDS011;7095;51.388;6.196;2022-08-05T02:21:00;17.37;;;11.47;;
14040;SDS011;7095;51.388;6.196;2022-08-05T02:23:41;24.47;;;13.20;;
14040;SDS011;7095;51.388;6.196;2022-08-05T02:26:16;26.53;;;13.43;;
14040;SDS011;7095;51.388;6.196;2022-08-05T02:28:52;20.30;;;13.33;;
14040;SDS011;7095;51.388;6.196;2022-08-05T02:31:27;18.67;;;13.07;;
14040;SDS011;7095;51.388;6.196;2022-08-05T02:34:02;20.80;;;14.33;;
14040;SDS011;7095;51.388;6.196;2022-08-05T02:36:35;22.83;;;13.43;;
14040;SDS011;7095;51.388;6.196;2022-08-05T02:39:08;20.10;;;13.73;;
14040;SDS011;7095;51.388;6.196;2022-08-05T02:41:39;20.40;;;14.83;;
14040;SDS011;7095;51.388;6.196;2022-08-05T02:44:27;26.00;;;15.20;;
14040;SDS011;7095;51.388;6.196;2022-08-05T02:46:59;23.50;;;16.17;;
14040;SDS011;7095;51.388;6.196;2022-08-05T02:49:32;23.90;;;14.87;;
14040;SDS011;7095;51.388;6.196;2022-08-05T02:52:07;21.33;;;15.83;;
14040;SDS011;7095;51.388;6.196;2022-08-05T02:54:56;23.07;;;15.47;;
14040;SDS011;7095;51.388;6.196;2022-08-05T02:57:32;22.03;;;15.60;;
14040;SDS011;7095;51.388;6.196;2022-08-05T03:00:22;25.40;;;15.37;;
14040;SDS011;7095;51.388;6.196;2022-08-05T03:02:54;27.57;;;17.67;;
14040;SDS011;7095;51.388;6.196;2022-08-05T03:05:25;26.13;;;17.33;;
14040;SDS011;7095;51.388;6.196;2022-08-05T03:08:14;26.77;;;17.43;;
14040;SDS011;7095;51.388;6.196;2022-08-05T03:10:55;26.20;;;17.80;;
14040;SDS011;7095;51.388;6.196;2022-08-05T03:13:44;25.97;;;18.53;;
14040;SDS011;7095;51.388;6.196;2022-08-05T03:16:29;25.53;;;18.10;;
14040;SDS011;7095;51.388;6.196;2022-08-05T03:19:03;25.77;;;19.47;;
14040;SDS011;7095;51.388;6.196;2022-08-05T03:21:52;28.03;;;19.40;;
14040;SDS011;7095;51.388;6.196;2022-08-05T03:24:21;25.97;;;20.00;;
14040;SDS011;7095;51.388;6.196;2022-08-05T03:26:56;25.27;;;18.73;;
14040;SDS011;7095;51.388;6.196;2022-08-05T03:29:25;26.70;;;19.47;;
14040;SDS011;7095;51.388;6.196;2022-08-05T03:32:16;26.93;;;19.97;;
14040;SDS011;7095;51.388;6.196;2022-08-05T03:34:58;31.20;;;19.53;;
14040;SDS011;7095;51.388;6.196;2022-08-05T03:37:31;27.30;;;19.87;;
14040;SDS011;7095;51.388;6.196;2022-08-05T03:40:12;27.83;;;19.57;;
14040;SDS011;7095;51.388;6.196;2022-08-05T03:42:58;28.30;;;19.90;;
14040;SDS011;7095;51.388;6.196;2022-08-05T03:45:47;30.57;;;19.50;;
14040;SDS011;7095;51.388;6.196;2022-08-05T03:48:24;26.73;;;21.30;;
14040;SDS011;7095;51.388;6.196;2022-08-05T03:51:02;27.80;;;19.77;;
14040;SDS011;7095;51.388;6.196;2022-08-05T03:53:58;29.03;;;19.37;;
14040;SDS011;7095;51.388;6.196;2022-08-05T03:56:52;24.83;;;19.33;;
14040;SDS011;7095;51.388;6.196;2022-08-05T03:59:25;24.87;;;18.77;;
14040;SDS011;7095;51.388;6.196;2022-08-05T04:02:13;27.10;;;19.53;;
14040;SDS011;7095;51.388;6.196;2022-08-05T04:05:04;27.77;;;19.17;;
14040;SDS011;7095;51.388;6.196;2022-08-05T04:07:37;29.97;;;19.57;;
14040;SDS011;7095;51.388;6.196;2022-08-05T04:10:25;21.70;;;18.13;;
14040;SDS011;7095;51.388;6.196;2022-08-05T04:13:03;29.50;;;18.97;;
14040;SDS011;7095;51.388;6.196;2022-08-05T04:15:33;28.87;;;19.23;;
14040;SDS011;7095;51.388;6.196;2022-08-05T04:18:04;32.93;;;19.33;;
14040;SDS011;7095;51.388;6.196;2022-08-05T04:20:37;22.87;;;18.50;;
14040;SDS011;7095;51.388;6.196;2022-08-05T04:23:09;26.87;;;19.97;;
14040;SDS011;7095;51.388;6.196;2022-08-05T04:25:42;30.13;;;19.67;;
14040;SDS011;7095;51.388;6.196;2022-08-05T04:28:26;28.23;;;18.93;;
14040;SDS011;7095;51.388;6.196;2022-08-05T04:30:57;30.60;;;19.70;;
14040;SDS011;7095;51.388;6.196;2022-08-05T04:33:34;25.83;;;20.17;;
14040;SDS011;7095;51.388;6.196;2022-08-05T04:36:22;25.00;;;19.10;;
14040;SDS011;7095;51.388;6.196;2022-08-05T04:39:13;29.33;;;19.60;;
14040;SDS011;7095;51.388;6.196;2022-08-05T04:41:42;28.63;;;20.23;;
14040;SDS011;7095;51.388;6.196;2022-08-05T04:44:11;29.23;;;20.07;;
14040;SDS011;7095;51.388;6.196;2022-08-05T04:46:47;24.87;;;18.70;;
14040;SDS011;7095;51.388;6.196;2022-08-05T04:49:18;31.67;;;20.03;;
14040;SDS011;7095;51.388;6.196;2022-08-05T04:51:50;31.00;;;18.03;;
14040;SDS011;7095;51.388;6.196;2022-08-05T04:54:28;26.53;;;19.40;;
14040;SDS011;7095;51.388;6.196;2022-08-05T04:56:57;27.30;;;17.57;;
14040;SDS011;7095;51.388;6.196;2022-08-05T04:59:26;21.30;;;16.00;;
14040;SDS011;7095;51.388;6.196;2022-08-05T05:02:05;23.07;;;15.47;;
14040;SDS011;7095;51.388;6.196;2022-08-05T05:04:53;23.27;;;15.30;;
14040;SDS011;7095;51.388;6.196;2022-08-05T05:07:29;25.57;;;14.97;;
14040;SDS011;7095;51.388;6.196;2022-08-05T05:10:03;19.13;;;14.13;;
14040;SDS011;7095;51.388;6.196;2022-08-05T05:12:32;26.30;;;15.10;;
14040;SDS011;7095;51.388;6.196;2022-08-05T05:15:03;20.37;;;13.17;;
14040;SDS011;7095;51.388;6.196;2022-08-05T05:17:37;19.03;;;11.50;;
14040;SDS011;7095;51.388;6.196;2022-08-05T05:20:23;13.60;;;10.73;;
14040;SDS011;7095;51.388;6.196;2022-08-05T05:22:54;13.00;;;9.97;;
14040;SDS011;7095;51.388;6.196;2022-08-05T05:25:24;14.90;;;9.33;;
14040;SDS011;7095;51.388;6.196;2022-08-05T05:28:06;15.80;;;9.17;;
14040;SDS011;7095;51.388;6.196;2022-08-05T05:30:35;16.40;;;9.07;;
14040;SDS011;7095;51.388;6.196;2022-08-05T05:33:05;15.03;;;9.83;;
14040;SDS011;7095;51.388;6.196;2022-08-05T05:35:43;16.00;;;8.07;;
14040;SDS011;7095;51.388;6.196;2022-08-05T05:38:13;14.00;;;8.40;;
14040;SDS011;7095;51.388;6.196;2022-08-05T05:40:54;14.20;;;7.97;;
14040;SDS011;7095;51.388;6.196;2022-08-05T05:43:23;13.27;;;7.97;;
14040;SDS011;7095;51.388;6.196;2022-08-05T05:46:12;14.60;;;8.20;;
14040;SDS011;7095;51.388;6.196;2022-08-05T05:48:43;18.20;;;8.10;;
14040;SDS011;7095;51.388;6.196;2022-08-05T05:51:17;11.87;;;7.90;;
14040;SDS011;7095;51.388;6.196;2022-08-05T05:53:47;15.97;;;8.17;;
14040;SDS011;7095;51.388;6.196;2022-08-05T05:56:27;11.90;;;7.50;;
14040;SDS011;7095;51.388;6.196;2022-08-05T05:59:01;9.97;;;7.60;;
14040;SDS011;7095;51.388;6.196;2022-08-05T06:01:32;14.37;;;7.63;;
14040;SDS011;7095;51.388;6.196;2022-08-05T06:04:04;13.13;;;8.00;;
14040;SDS011;7095;51.388;6.196;2022-08-05T06:06:38;13.70;;;8.07;;
14040;SDS011;7095;51.388;6.196;2022-08-05T06:09:08;11.17;;;7.77;;
14040;SDS011;7095;51.388;6.196;2022-08-05T06:11:54;13.40;;;7.93;;
14040;SDS011;7095;51.388;6.196;2022-08-05T06:14:28;14.00;;;8.03;;
14040;SDS011;7095;51.388;6.196;2022-08-05T06:17:00;18.63;;;9.07;;
14040;SDS011;7095;51.388;6.196;2022-08-05T06:19:49;14.57;;;7.50;;
14040;SDS011;7095;51.388;6.196;2022-08-05T06:22:25;13.30;;;8.80;;
14040;SDS011;7095;51.388;6.196;2022-08-05T06:24:59;17.57;;;8.10;;
14040;SDS011;7095;51.388;6.196;2022-08-05T06:27:50;10.60;;;7.53;;
14040;SDS011;7095;51.388;6.196;2022-08-05T06:30:39;13.43;;;7.63;;
14040;SDS011;7095;51.388;6.196;2022-08-05T06:33:08;9.63;;;7.07;;
14040;SDS011;7095;51.388;6.196;2022-08-05T06:35:44;15.77;;;7.93;;
14040;SDS011;7095;51.388;6.196;2022-08-05T06:38:33;13.70;;;8.43;;
14040;SDS011;7095;51.388;6.196;2022-08-05T06:41:03;16.00;;;8.37;;
14040;SDS011;7095;51.388;6.196;2022-08-05T06:43:35;16.23;;;7.10;;
14040;SDS011;7095;51.388;6.196;2022-08-05T06:46:24;16.67;;;7.60;;
14040;SDS011;7095;51.388;6.196;2022-08-05T06:48:56;11.67;;;6.70;;
14040;SDS011;7095;51.388;6.196;2022-08-05T06:51:27;11.90;;;7.40;;
14040;SDS011;7095;51.388;6.196;2022-08-05T06:53:57;12.60;;;7.37;;
14040;SDS011;7095;51.388;6.196;2022-08-05T06:56:28;17.03;;;7.73;;
14040;SDS011;7095;51.388;6.196;2022-08-05T06:59:02;14.93;;;7.90;;
14040;SDS011;7095;51.388;6.196;2022-08-05T07:01:35;19.10;;;8.50;;
14040;SDS011;7095;51.388;6.196;2022-08-05T07:04:07;14.70;;;7.03;;
14040;SDS011;7095;51.388;6.196;2022-08-05T07:06:35;13.37;;;7.77;;
14040;SDS011;7095;51.388;6.196;2022-08-05T07:09:04;16.70;;;8.80;;
14040;SDS011;7095;51.388;6.196;2022-08-05T07:11:33;22.90;;;8.90;;
14040;SDS011;7095;51.388;6.196;2022-08-05T07:14:07;13.43;;;8.60;;
14040;SDS011;7095;51.388;6.196;2022-08-05T07:17:00;16.50;;;8.80;;
14040;SDS011;7095;51.388;6.196;2022-08-05T07:19:50;11.87;;;8.80;;
14040;SDS011;7095;51.388;6.196;2022-08-05T07:22:40;14.47;;;9.23;;
14040;SDS011;7095;51.388;6.196;2022-08-05T07:25:13;12.80;;;9.07;;
14040;SDS011;7095;51.388;6.196;2022-08-05T07:28:02;12.47;;;8.30;;
14040;SDS011;7095;51.388;6.196;2022-08-05T07:30:38;14.33;;;8.00;;
14040;SDS011;7095;51.388;6.196;2022-08-05T07:33:09;13.17;;;8.37;;
14040;SDS011;7095;51.388;6.196;2022-08-05T07:35:43;12.30;;;8.77;;
14040;SDS011;7095;51.388;6.196;2022-08-05T07:38:31;15.40;;;8.13;;
14040;SDS011;7095;51.388;6.196;2022-08-05T07:41:09;13.43;;;7.97;;
14040;SDS011;7095;51.388;6.196;2022-08-05T07:43:59;11.40;;;8.07;;
14040;SDS011;7095;51.388;6.196;2022-08-05T07:46:31;13.47;;;8.40;;
14040;SDS011;7095;51.388;6.196;2022-08-05T07:49:01;14.37;;;8.83;;
14040;SDS011;7095;51.388;6.196;2022-08-05T07:51:34;16.47;;;7.90;;
14040;SDS011;7095;51.388;6.196;2022-08-05T07:54:19;10.73;;;7.83;;
14040;SDS011;7095;51.388;6.196;2022-08-05T07:56:59;13.00;;;8.43;;
14040;SDS011;7095;51.388;6.196;2022-08-05T07:59:48;14.93;;;8.53;;
14040;SDS011;7095;51.388;6.196;2022-08-05T08:02:22;12.20;;;7.50;;
14040;SDS011;7095;51.388;6.196;2022-08-05T08:05:12;11.97;;;7.53;;
14040;SDS011;7095;51.388;6.196;2022-08-05T08:07:43;12.40;;;7.50;;
14040;SDS011;7095;51.388;6.196;2022-08-05T08:10:26;12.47;;;6.83;;
14040;SDS011;7095;51.388;6.196;2022-08-05T08:12:56;14.10;;;8.07;;
14040;SDS011;7095;51.388;6.196;2022-08-05T08:15:27;12.37;;;7.17;;
14040;SDS011;7095;51.388;6.196;2022-08-05T08:18:18;8.87;;;6.23;;
14040;SDS011;7095;51.388;6.196;2022-08-05T08:20:47;13.10;;;6.43;;
14040;SDS011;7095;51.388;6.196;2022-08-05T08:23:29;10.87;;;6.43;;
14040;SDS011;7095;51.388;6.196;2022-08-05T08:26:18;8.23;;;5.43;;
14040;SDS011;7095;51.388;6.196;2022-08-05T08:28:56;10.67;;;5.67;;
14040;SDS011;7095;51.388;6.196;2022-08-05T08:31:45;9.63;;;5.13;;
14040;SDS011;7095;51.388;6.196;2022-08-05T08:34:16;9.13;;;4.70;;
14040;SDS011;7095;51.388;6.196;2022-08-05T08:36:56;9.20;;;5.00;;
14040;SDS011;7095;51.388;6.196;2022-08-05T08:39:31;6.80;;;4.17;;
14040;SDS011;7095;51.388;6.196;2022-08-05T08:42:05;9.13;;;4.50;;
14040;SDS011;7095;51.388;6.196;2022-08-05T08:44:57;8.93;;;4.13;;
14040;SDS011;7095;51.388;6.196;2022-08-05T08:47:49;8.93;;;4.07;;
14040;SDS011;7095;51.388;6.196;2022-08-05T08:50:41;8.23;;;4.57;;
14040;SDS011;7095;51.388;6.196;2022-08-05T08:53:34;7.80;;;4.43;;
14040;SDS011;7095;51.388;6.196;2022-08-05T08:56:11;7.47;;;4.40;;
14040;SDS011;7095;51.388;6.196;2022-08-05T08:58:40;10.00;;;4.33;;
14040;SDS011;7095;51.388;6.196;2022-08-05T09:01:14;9.57;;;4.23;;
14040;SDS011;7095;51.388;6.196;2022-08-05T09:03:45;8.13;;;3.63;;
14040;SDS011;7095;51.388;6.196;2022-08-05T09:06:23;7.57;;;3.60;;
14040;SDS011;7095;51.388;6.196;2022-08-05T09:08:56;7.13;;;3.27;;
14040;SDS011;7095;51.388;6.196;2022-08-05T09:11:27;7.27;;;3.80;;
14040;SDS011;7095;51.388;6.196;2022-08-05T09:14:16;8.50;;;4.03;;
14040;SDS011;7095;51.388;6.196;2022-08-05T09:17:06;8.37;;;3.70;;
14040;SDS011;7095;51.388;6.196;2022-08-05T09:19:58;11.47;;;4.20;;
14040;SDS011;7095;51.388;6.196;2022-08-05T09:25:46;6.70;;;4.47;;
14040;SDS011;7095;51.388;6.196;2022-08-05T09:28:29;7.60;;;4.43;;
14040;SDS011;7095;51.388;6.196;2022-08-05T09:31:00;8.33;;;3.90;;
14040;SDS011;7095;51.388;6.196;2022-08-05T09:33:52;9.37;;;4.77;;
14040;SDS011;7095;51.388;6.196;2022-08-05T09:36:37;11.07;;;5.10;;
14040;SDS011;7095;51.388;6.196;2022-08-05T09:39:21;10.67;;;5.80;;
14040;SDS011;7095;51.388;6.196;2022-08-05T09:42:10;9.90;;;5.20;;
14040;SDS011;7095;51.388;6.196;2022-08-05T09:44:54;8.57;;;5.50;;
14040;SDS011;7095;51.388;6.196;2022-08-05T09:47:43;12.13;;;6.77;;
14040;SDS011;7095;51.388;6.196;2022-08-05T09:50:32;10.10;;;6.37;;
14040;SDS011;7095;51.388;6.196;2022-08-05T09:53:10;9.73;;;6.67;;
14040;SDS011;7095;51.388;6.196;2022-08-05T09:56:00;11.83;;;6.70;;
14040;SDS011;7095;51.388;6.196;2022-08-05T09:58:38;8.17;;;6.33;;
14040;SDS011;7095;51.388;6.196;2022-08-05T10:01:10;9.13;;;6.67;;
14040;SDS011;7095;51.388;6.196;2022-08-05T10:03:55;15.43;;;7.30;;
14040;SDS011;7095;51.388;6.196;2022-08-05T10:06:26;14.57;;;7.83;;
14040;SDS011;7095;51.388;6.196;2022-08-05T10:09:09;11.43;;;7.57;;
14040;SDS011;7095;51.388;6.196;2022-08-05T10:11:55;11.27;;;7.37;;
14040;SDS011;7095;51.388;6.196;2022-08-05T10:15:03;12.00;;;7.80;;
14040;SDS011;7095;51.388;6.196;2022-08-05T10:18:06;12.43;;;7.70;;
14040;SDS011;7095;51.388;6.196;2022-08-05T10:20:38;15.27;;;7.80;;
14040;SDS011;7095;51.388;6.196;2022-08-05T10:23:11;8.83;;;6.57;;
14040;SDS011;7095;51.388;6.196;2022-08-05T10:26:02;11.00;;;8.10;;
14040;SDS011;7095;51.388;6.196;2022-08-05T10:28:42;12.50;;;7.10;;
14040;SDS011;7095;51.388;6.196;2022-08-05T10:31:13;12.77;;;7.90;;
14040;SDS011;7095;51.388;6.196;2022-08-05T10:34:03;8.50;;;7.37;;
14040;SDS011;7095;51.388;6.196;2022-08-05T10:36:34;14.83;;;7.70;;
14040;SDS011;7095;51.388;6.196;2022-08-05T10:39:06;15.97;;;7.80;;
14040;SDS011;7095;51.388;6.196;2022-08-05T10:41:59;10.00;;;7.63;;
14040;SDS011;7095;51.388;6.196;2022-08-05T10:44:39;10.37;;;7.40;;
14040;SDS011;7095;51.388;6.196;2022-08-05T10:47:12;12.67;;;7.00;;
14040;SDS011;7095;51.388;6.196;2022-08-05T10:49:59;11.67;;;6.97;;
14040;SDS011;7095;51.388;6.196;2022-08-05T10:52:52;15.03;;;7.40;;
14040;SDS011;7095;51.388;6.196;2022-08-05T10:55:24;9.97;;;6.00;;
14040;SDS011;7095;51.388;6.196;2022-08-05T10:58:05;10.63;;;6.17;;
14040;SDS011;7095;51.388;6.196;2022-08-05T11:00:39;7.70;;;5.77;;
14040;SDS011;7095;51.388;6.196;2022-08-05T11:03:13;11.83;;;5.67;;
14040;SDS011;7095;51.388;6.196;2022-08-05T11:06:01;11.20;;;4.07;;
14040;SDS011;7095;51.388;6.196;2022-08-05T11:15:21;10.10;;;4.23;;
14040;SDS011;7095;51.388;6.196;2022-08-05T11:18:24;9.33;;;4.07;;
14040;SDS011;7095;51.388;6.196;2022-08-05T11:20:58;9.43;;;4.40;;
14040;SDS011;7095;51.388;6.196;2022-08-05T11:23:40;9.27;;;3.90;;
14040;SDS011;7095;51.388;6.196;2022-08-05T11:26:31;7.53;;;4.27;;
14040;SDS011;7095;51.388;6.196;2022-08-05T11:29:01;7.73;;;4.10;;
14040;SDS011;7095;51.388;6.196;2022-08-05T11:31:43;6.03;;;3.70;;
14040;SDS011;7095;51.388;6.196;2022-08-05T11:34:38;7.13;;;3.77;;
14040;SDS011;7095;51.388;6.196;2022-08-05T11:37:41;5.77;;;3.60;;
14040;SDS011;7095;51.388;6.196;2022-08-05T11:40:56;5.83;;;3.43;;
14040;SDS011;7095;51.388;6.196;2022-08-05T11:43:52;8.07;;;3.40;;
14040;SDS011;7095;51.388;6.196;2022-08-05T11:46:34;6.53;;;2.57;;
14040;SDS011;7095;51.388;6.196;2022-08-05T11:49:23;8.27;;;2.90;;
14040;SDS011;7095;51.388;6.196;2022-08-05T11:51:54;5.20;;;2.50;;
14040;SDS011;7095;51.388;6.196;2022-08-05T11:54:24;3.47;;;2.20;;
14040;SDS011;7095;51.388;6.196;2022-08-05T11:57:01;9.20;;;2.90;;
14040;SDS011;7095;51.388;6.196;2022-08-05T11:59:50;7.63;;;2.73;;
14040;SDS011;7095;51.388;6.196;2022-08-05T12:02:23;3.90;;;2.20;;
14040;SDS011;7095;51.388;6.196;2022-08-05T12:04:59;4.10;;;1.83;;
14040;SDS011;7095;51.388;6.196;2022-08-05T12:07:36;3.57;;;2.10;;
14040;SDS011;7095;51.388;6.196;2022-08-05T12:10:25;7.70;;;2.07;;
14040;SDS011;7095;51.388;6.196;2022-08-05T12:13:10;5.27;;;2.10;;
14040;SDS011;7095;51.388;6.196;2022-08-05T12:15:44;6.73;;;2.63;;
14040;SDS011;7095;51.388;6.196;2022-08-05T12:18:16;5.80;;;2.47;;
14040;SDS011;7095;51.388;6.196;2022-08-05T12:20:52;3.33;;;2.10;;
14040;SDS011;7095;51.388;6.196;2022-08-05T12:23:23;4.77;;;1.90;;
14040;SDS011;7095;51.388;6.196;2022-08-05T12:25:53;4.43;;;1.43;;
14040;SDS011;7095;51.388;6.196;2022-08-05T12:28:29;2.97;;;1.77;;
14040;SDS011;7095;51.388;6.196;2022-08-05T12:31:00;2.07;;;1.10;;
14040;SDS011;7095;51.388;6.196;2022-08-05T12:33:29;4.70;;;1.97;;
14040;SDS011;7095;51.388;6.196;2022-08-05T12:36:07;2.90;;;1.60;;
14040;SDS011;7095;51.388;6.196;2022-08-05T12:38:40;5.20;;;1.50;;
14040;SDS011;7095;51.388;6.196;2022-08-05T12:41:10;3.47;;;1.47;;
14040;SDS011;7095;51.388;6.196;2022-08-05T12:43:48;2.50;;;1.43;;
14040;SDS011;7095;51.388;6.196;2022-08-05T12:46:19;2.83;;;1.27;;
14040;SDS011;7095;51.388;6.196;2022-08-05T12:48:56;2.67;;;1.33;;
14040;SDS011;7095;51.388;6.196;2022-08-05T12:51:26;2.77;;;1.23;;
14040;SDS011;7095;51.388;6.196;2022-08-05T12:54:19;1.97;;;1.30;;
14040;SDS011;7095;51.388;6.196;2022-08-05T12:56:53;4.70;;;1.53;;
14040;SDS011;7095;51.388;6.196;2022-08-05T12:59:24;2.17;;;1.40;;
14040;SDS011;7095;51.388;6.196;2022-08-05T13:02:18;4.07;;;1.60;;
14040;SDS011;7095;51.388;6.196;2022-08-05T13:04:56;2.37;;;1.10;;
14040;SDS011;7095;51.388;6.196;2022-08-05T13:07:25;2.97;;;1.00;;
14040;SDS011;7095;51.388;6.196;2022-08-05T13:10:16;2.50;;;0.70;;
14040;SDS011;7095;51.388;6.196;2022-08-05T13:12:46;2.93;;;1.10;;
14040;SDS011;7095;51.388;6.196;2022-08-05T13:15:29;2.10;;;0.60;;
14040;SDS011;7095;51.388;6.196;2022-08-05T13:18:16;1.23;;;0.70;;
14040;SDS011;7095;51.388;6.196;2022-08-05T13:20:46;2.27;;;0.80;;
14040;SDS011;7095;51.388;6.196;2022-08-05T13:23:16;4.13;;;0.53;;
14040;SDS011;7095;51.388;6.196;2022-08-05T13:25:50;2.27;;;0.83;;
14040;SDS011;7095;51.388;6.196;2022-08-05T13:28:25;5.97;;;0.97;;
14040;SDS011;7095;51.388;6.196;2022-08-05T13:30:54;2.53;;;0.87;;
14040;SDS011;7095;51.388;6.196;2022-08-05T13:33:23;2.80;;;0.67;;
14040;SDS011;7095;51.388;6.196;2022-08-05T13:36:11;1.33;;;0.80;;
14040;SDS011;7095;51.388;6.196;2022-08-05T13:38:40;3.50;;;1.20;;
14040;SDS011;7095;51.388;6.196;2022-08-05T13:41:19;4.17;;;0.93;;
14040;SDS011;7095;51.388;6.196;2022-08-05T13:43:51;1.93;;;0.80;;
14040;SDS011;7095;51.388;6.196;2022-08-05T13:46:21;3.97;;;1.10;;
14040;SDS011;7095;51.388;6.196;2022-08-05T13:49:10;3.33;;;0.73;;
14040;SDS011;7095;51.388;6.196;2022-08-05T13:51:39;2.97;;;1.00;;
14040;SDS011;7095;51.388;6.196;2022-08-05T13:54:13;1.75;;;0.70;;
14040;SDS011;7095;51.388;6.196;2022-08-05T13:56:52;7.18;;;0.80;;
14040;SDS011;7095;51.388;6.196;2022-08-05T13:59:21;1.40;;;0.70;;
14040;SDS011;7095;51.388;6.196;2022-08-05T14:01:53;6.25;;;1.13;;
14040;SDS011;7095;51.388;6.196;2022-08-05T14:04:25;4.50;;;0.90;;
14040;SDS011;7095;51.388;6.196;2022-08-05T14:07:17;2.47;;;0.88;;
14040;SDS011;7095;51.388;6.196;2022-08-05T14:10:08;2.58;;;0.80;;
14040;SDS011;7095;51.388;6.196;2022-08-05T14:12:40;4.22;;;1.08;;
14040;SDS011;7095;51.388;6.196;2022-08-05T14:15:14;3.35;;;0.82;;
14040;SDS011;7095;51.388;6.196;2022-08-05T14:18:04;2.72;;;0.80;;
14040;SDS011;7095;51.388;6.196;2022-08-05T14:20:43;1.37;;;0.63;;
14040;SDS011;7095;51.388;6.196;2022-08-05T14:23:14;3.83;;;1.33;;
14040;SDS011;7095;51.388;6.196;2022-08-05T14:25:52;3.60;;;1.50;;
14040;SDS011;7095;51.388;6.196;2022-08-05T14:28:26;2.53;;;0.80;;
14040;SDS011;7095;51.388;6.196;2022-08-05T14:30:56;2.80;;;0.90;;
14040;SDS011;7095;51.388;6.196;2022-08-05T14:33:26;2.97;;;0.90;;
14040;SDS011;7095;51.388;6.196;2022-08-05T14:36:15;3.83;;;0.90;;
14040;SDS011;7095;51.388;6.196;2022-08-05T14:38:47;0.93;;;0.50;;
14040;SDS011;7095;51.388;6.196;2022-08-05T14:41:17;3.77;;;0.90;;
14040;SDS011;7095;51.388;6.196;2022-08-05T14:43:48;2.93;;;1.07;;
14040;SDS011;7095;51.388;6.196;2022-08-05T14:46:28;3.27;;;1.13;;
14040;SDS011;7095;51.388;6.196;2022-08-05T14:49:01;2.97;;;1.03;;
14040;SDS011;7095;51.388;6.196;2022-08-05T14:51:34;4.77;;;0.83;;
14040;SDS011;7095;51.388;6.196;2022-08-05T14:54:04;2.33;;;1.13;;
14040;SDS011;7095;51.388;6.196;2022-08-05T14:56:53;1.67;;;0.80;;
14040;SDS011;7095;51.388;6.196;2022-08-05T14:59:24;2.23;;;0.70;;
14040;SDS011;7095;51.388;6.196;2022-08-05T15:02:01;2.53;;;0.90;;
14040;SDS011;7095;51.388;6.196;2022-08-05T15:04:49;3.00;;;1.20;;
14040;SDS011;7095;51.388;6.196;2022-08-05T15:07:18;2.73;;;0.90;;
14040;SDS011;7095;51.388;6.196;2022-08-05T15:10:07;5.53;;;1.03;;
14040;SDS011;7095;51.388;6.196;2022-08-05T15:12:36;7.37;;;1.23;;
14040;SDS011;7095;51.388;6.196;2022-08-05T15:15:28;3.67;;;1.43;;
14040;SDS011;7095;51.388;6.196;2022-08-05T15:18:17;3.53;;;0.97;;
14040;SDS011;7095;51.388;6.196;2022-08-05T15:20:46;5.50;;;0.87;;
14040;SDS011;7095;51.388;6.196;2022-08-05T15:23:15;1.70;;;0.57;;
14040;SDS011;7095;51.388;6.196;2022-08-05T15:25:44;4.57;;;1.27;;
14040;SDS011;7095;51.388;6.196;2022-08-05T15:28:20;2.63;;;1.00;;
14040;SDS011;7095;51.388;6.196;2022-08-05T15:30:55;2.07;;;0.70;;
14040;SDS011;7095;51.388;6.196;2022-08-05T15:33:24;2.60;;;0.80;;
14040;SDS011;7095;51.388;6.196;2022-08-05T15:36:12;3.50;;;0.80;;
14040;SDS011;7095;51.388;6.196;2022-08-05T15:38:50;4.47;;;0.90;;
14040;SDS011;7095;51.388;6.196;2022-08-05T15:41:38;2.17;;;0.63;;
14040;SDS011;7095;51.388;6.196;2022-08-05T15:44:25;3.50;;;0.80;;
14040;SDS011;7095;51.388;6.196;2022-08-05T15:46:57;2.37;;;0.60;;
14040;SDS011;7095;51.388;6.196;2022-08-05T15:49:29;2.00;;;0.83;;
14040;SDS011;7095;51.388;6.196;2022-08-05T15:52:20;3.90;;;0.90;;
14040;SDS011;7095;51.388;6.196;2022-08-05T15:55:10;1.63;;;0.80;;
14040;SDS011;7095;51.388;6.196;2022-08-05T15:57:42;2.20;;;0.50;;
14040;SDS011;7095;51.388;6.196;2022-08-05T16:00:15;1.30;;;0.50;;
14040;SDS011;7095;51.388;6.196;2022-08-05T16:03:06;1.83;;;0.60;;
14040;SDS011;7095;51.388;6.196;2022-08-05T16:05:34;1.43;;;0.60;;
14040;SDS011;7095;51.388;6.196;2022-08-05T16:08:07;2.73;;;0.67;;